createdAt,value
2017-07-27T00:02:47.780Z,15.93
2017-07-27T00:05:16.706Z,17.45
2017-07-27T00:07:45.668Z,17.02
2017-07-27T00:10:14.626Z,17.02
2017-07-27T00:12:43.602Z,16.50
2017-07-27T00:15:12.563Z,17.33
2017-07-27T00:17:41.474Z,17.23
2017-07-27T00:20:10.399Z,16.10
2017-07-27T00:22:39.352Z,15.77
2017-07-27T00:25:08.279Z,16.42
2017-07-27T00:27:37.219Z,16.67
2017-07-27T00:30:06.087Z,16.52
2017-07-27T00:32:35.023Z,16.67
2017-07-27T00:35:03.900Z,17.20
2017-07-27T00:37:32.780Z,17.15
2017-07-27T00:40:01.675Z,17.30
2017-07-27T00:42:30.687Z,16.62
2017-07-27T00:44:59.612Z,16.30
2017-07-27T00:47:28.537Z,17.40
2017-07-27T00:49:57.417Z,16.42
2017-07-27T00:53:45.692Z,16.02
2017-07-27T00:56:14.623Z,17.08
2017-07-27T00:58:43.619Z,16.45
2017-07-27T01:01:12.545Z,16.65
2017-07-27T01:03:41.469Z,16.83
2017-07-27T01:06:10.559Z,17.10
2017-07-27T01:08:39.525Z,16.75
2017-07-27T01:11:08.486Z,17.27
2017-07-27T01:13:37.367Z,15.52
2017-07-27T01:16:06.250Z,17.00
2017-07-27T01:18:35.409Z,16.25
2017-07-27T01:21:04.359Z,15.80
2017-07-27T01:23:33.282Z,13.45
2017-07-27T01:26:02.231Z,14.57
2017-07-27T01:28:31.212Z,14.30
2017-07-27T01:31:00.188Z,16.48
2017-07-27T01:33:29.226Z,14.95
2017-07-27T01:35:58.139Z,13.80
2017-07-27T01:38:27.027Z,15.75
2017-07-27T01:40:55.921Z,14.80
2017-07-27T01:43:24.855Z,14.50
2017-07-27T01:45:53.817Z,16.45
2017-07-27T01:48:22.763Z,15.48
2017-07-27T01:50:51.655Z,14.18
2017-07-27T01:53:20.587Z,15.00
2017-07-27T01:55:49.547Z,16.02
2017-07-27T01:58:18.519Z,15.50
2017-07-27T02:00:48.404Z,15.00
2017-07-27T02:04:19.802Z,17.70
2017-07-27T02:06:48.775Z,13.98
2017-07-27T02:09:17.674Z,15.30
2017-07-27T02:11:46.636Z,15.40
2017-07-27T02:14:15.664Z,16.87
2017-07-27T02:16:44.592Z,15.98
2017-07-27T02:19:13.545Z,16.35
2017-07-27T02:21:42.486Z,15.25
2017-07-27T02:24:11.387Z,14.98
2017-07-27T02:26:40.318Z,15.43
2017-07-27T02:31:47.252Z,15.85
2017-07-27T02:34:16.178Z,16.73
2017-07-27T02:36:45.064Z,16.27
2017-07-27T02:39:13.952Z,16.37
2017-07-27T02:41:42.866Z,15.00
2017-07-27T02:44:12.261Z,14.87
2017-07-27T02:46:41.456Z,16.52
2017-07-27T02:49:10.368Z,15.75
2017-07-27T02:51:39.299Z,15.82
2017-07-27T02:54:08.183Z,15.85
2017-07-27T02:56:37.119Z,17.20
2017-07-27T02:59:06.036Z,15.25
2017-07-27T03:01:34.922Z,15.52
2017-07-27T03:04:03.858Z,17.48
2017-07-27T03:06:32.755Z,18.42
2017-07-27T03:09:01.735Z,18.25
2017-07-27T03:11:30.655Z,20.50
2017-07-27T03:13:59.526Z,20.55
2017-07-27T03:16:28.480Z,21.12
2017-07-27T03:18:57.362Z,22.45
2017-07-27T03:21:26.299Z,21.40
2017-07-27T03:23:55.271Z,24.70
2017-07-27T03:26:24.194Z,24.75
2017-07-27T03:28:53.095Z,23.87
2017-07-27T03:31:21.982Z,24.12
2017-07-27T03:33:50.874Z,24.60
2017-07-27T03:36:19.833Z,26.85
2017-07-27T03:38:48.733Z,46.22
2017-07-27T03:41:17.670Z,24.35
2017-07-27T03:43:46.561Z,23.27
2017-07-27T03:46:15.459Z,22.73
2017-07-27T03:48:44.405Z,21.58
2017-07-27T03:51:13.385Z,21.55
2017-07-27T03:53:42.280Z,21.08
2017-07-27T03:56:11.227Z,20.88
2017-07-27T03:58:40.160Z,19.17
2017-07-27T04:01:09.071Z,19.25
2017-07-27T04:03:37.979Z,17.90
2017-07-27T04:06:06.903Z,17.45
2017-07-27T04:08:35.860Z,18.33
2017-07-27T04:11:04.780Z,18.10
2017-07-27T04:13:33.692Z,18.42
2017-07-27T04:16:02.579Z,19.10
2017-07-27T04:18:31.497Z,18.75
2017-07-27T04:21:00.495Z,22.92
2017-07-27T04:23:29.418Z,20.60
2017-07-27T04:25:58.332Z,21.35
2017-07-27T04:28:27.245Z,19.77
2017-07-27T04:30:56.147Z,20.25
2017-07-27T04:33:25.066Z,24.50
2017-07-27T04:35:54.011Z,24.25
2017-07-27T04:38:22.894Z,21.95
2017-07-27T04:40:51.824Z,23.50
2017-07-27T04:43:20.729Z,22.20
2017-07-27T04:45:49.620Z,20.65
2017-07-27T04:48:18.545Z,19.98
2017-07-27T04:50:47.500Z,19.30
2017-07-27T04:54:35.768Z,18.95
2017-07-27T04:57:13.453Z,17.85
2017-07-27T04:59:42.390Z,17.60
2017-07-27T05:02:11.351Z,17.15
2017-07-27T05:04:40.368Z,17.20
2017-07-27T05:07:09.346Z,16.12
2017-07-27T05:09:38.238Z,16.00
2017-07-27T05:12:07.130Z,16.50
2017-07-27T05:14:36.029Z,19.35
2017-07-27T05:17:04.948Z,16.65
2017-07-27T05:19:33.841Z,17.75
2017-07-27T05:22:02.776Z,17.87
2017-07-27T05:24:31.660Z,18.37
2017-07-27T05:27:00.612Z,19.55
2017-07-27T05:29:29.871Z,18.08
2017-07-27T05:31:58.759Z,19.17
2017-07-27T05:34:27.680Z,19.27
2017-07-27T05:36:56.583Z,18.48
2017-07-27T05:40:59.188Z,20.92
2017-07-27T05:43:28.072Z,16.95
2017-07-27T05:45:56.983Z,17.20
2017-07-27T05:48:25.944Z,17.85
2017-07-27T05:50:54.846Z,17.67
2017-07-27T05:53:23.768Z,18.50
2017-07-27T05:55:52.689Z,17.95
2017-07-27T05:58:21.629Z,18.75
2017-07-27T06:00:50.587Z,18.95
2017-07-27T06:03:19.577Z,20.10
2017-07-27T06:05:48.547Z,19.35
2017-07-27T06:08:17.427Z,18.20
2017-07-27T06:10:52.869Z,18.98
2017-07-27T06:13:21.835Z,18.67
2017-07-27T06:18:26.088Z,18.58
2017-07-27T06:20:55.027Z,19.45
2017-07-27T06:23:23.989Z,18.40
2017-07-27T06:25:52.887Z,19.20
2017-07-27T06:28:21.782Z,19.52
2017-07-27T06:30:50.711Z,17.65
2017-07-27T06:33:19.681Z,20.73
2017-07-27T06:35:48.645Z,19.55
2017-07-27T06:38:17.538Z,20.62
2017-07-27T06:40:46.496Z,22.92
2017-07-27T06:43:15.417Z,18.37
2017-07-27T06:45:44.357Z,20.30
2017-07-27T06:48:13.319Z,21.58
2017-07-27T06:50:42.333Z,19.62
2017-07-27T06:53:11.323Z,18.00
2017-07-27T06:55:40.274Z,18.35
2017-07-27T06:58:09.262Z,19.42
2017-07-27T07:00:38.167Z,19.70
2017-07-27T07:03:07.135Z,21.48
2017-07-27T07:05:36.036Z,16.85
2017-07-27T07:08:04.944Z,17.67
2017-07-27T07:10:33.864Z,15.80
2017-07-27T07:13:02.862Z,17.27
2017-07-27T07:15:31.864Z,18.83
2017-07-27T07:18:00.846Z,16.90
2017-07-27T07:20:29.847Z,16.45
2017-07-27T07:22:58.809Z,16.62
2017-07-27T07:25:27.868Z,16.73
2017-07-27T07:27:56.781Z,15.95
2017-07-27T07:30:25.751Z,16.70
2017-07-27T07:32:54.712Z,15.18
2017-07-27T07:35:23.739Z,16.80
2017-07-27T07:37:52.647Z,15.23
2017-07-27T07:40:21.591Z,14.10
2017-07-27T07:42:50.507Z,13.62
2017-07-27T07:45:19.490Z,13.27
2017-07-27T07:47:48.448Z,13.30
2017-07-27T07:50:19.509Z,12.70
2017-07-27T07:52:48.447Z,12.68
2017-07-27T07:55:17.368Z,13.05
2017-07-27T07:57:46.320Z,12.57
2017-07-27T08:00:15.309Z,13.88
2017-07-27T08:02:44.258Z,13.10
2017-07-27T08:05:13.215Z,10.52
2017-07-27T08:07:42.237Z,10.15
2017-07-27T08:10:26.600Z,9.75
2017-07-27T08:12:56.898Z,8.57
2017-07-27T08:15:25.789Z,10.77
2017-07-27T08:17:54.940Z,10.95
2017-07-27T08:20:23.909Z,10.57
2017-07-27T08:23:23.311Z,9.60
2017-07-27T08:25:52.225Z,10.68
2017-07-27T08:28:21.435Z,10.70
2017-07-27T08:32:09.661Z,10.63
2017-07-27T08:34:42.810Z,10.90
2017-07-27T08:37:15.610Z,11.20
2017-07-27T08:39:44.553Z,10.68
2017-07-27T08:42:13.587Z,11.88
2017-07-27T08:44:42.551Z,13.07
2017-07-27T08:47:11.589Z,12.95
2017-07-27T08:49:40.544Z,13.52
2017-07-27T08:52:09.626Z,12.65
2017-07-27T08:54:38.564Z,12.20
2017-07-27T08:57:07.514Z,12.13
2017-07-27T08:59:36.478Z,11.73
2017-07-27T09:02:05.381Z,10.30
2017-07-27T09:04:34.347Z,10.50
2017-07-27T09:07:03.281Z,9.32
2017-07-27T09:09:32.266Z,9.80
2017-07-27T09:12:01.269Z,8.88
2017-07-27T09:14:30.227Z,9.00
2017-07-27T09:16:59.211Z,8.50
2017-07-27T09:22:03.468Z,9.00
2017-07-27T09:24:32.388Z,7.95
2017-07-27T09:27:01.440Z,7.95
2017-07-27T09:29:30.424Z,8.68
2017-07-27T09:31:59.320Z,7.47
2017-07-27T09:34:28.265Z,8.00
2017-07-27T09:36:57.219Z,8.45
2017-07-27T09:39:26.166Z,7.72
2017-07-27T09:41:55.107Z,10.32
2017-07-27T09:44:24.072Z,8.05
2017-07-27T09:46:52.986Z,9.38
2017-07-27T09:49:22.020Z,8.20
2017-07-27T09:51:50.999Z,8.65
2017-07-27T09:54:20.012Z,8.30
2017-07-27T09:56:53.411Z,8.60
2017-07-27T09:59:22.383Z,8.27
2017-07-27T10:01:51.346Z,8.55
2017-07-27T10:04:20.303Z,8.60
2017-07-27T10:06:49.328Z,8.55
2017-07-27T10:09:18.322Z,8.05
2017-07-27T10:11:47.246Z,7.90
2017-07-27T10:14:16.171Z,7.30
2017-07-27T10:16:45.072Z,7.15
2017-07-27T10:19:14.014Z,7.70
2017-07-27T10:21:43.033Z,7.55
2017-07-27T10:24:12.026Z,7.60
2017-07-27T10:26:41.012Z,10.57
2017-07-27T10:30:12.673Z,6.60
2017-07-27T10:32:41.683Z,6.00
2017-07-27T10:35:10.636Z,6.27
2017-07-27T10:37:39.571Z,4.60
2017-07-27T10:40:08.566Z,7.30
2017-07-27T10:42:37.540Z,6.53
2017-07-27T10:45:06.737Z,5.67
2017-07-27T10:47:35.711Z,6.83
2017-07-27T10:50:04.612Z,6.27
2017-07-27T10:52:33.611Z,6.33
2017-07-27T10:55:02.552Z,6.30
2017-07-27T10:57:31.469Z,7.80
2017-07-27T11:00:00.499Z,6.93
2017-07-27T11:02:29.492Z,8.40
2017-07-27T11:04:58.522Z,6.90
2017-07-27T11:07:27.449Z,7.87
2017-07-27T11:09:56.382Z,8.85
2017-07-27T11:12:25.284Z,8.65
2017-07-27T11:14:54.277Z,8.35
2017-07-27T11:17:23.445Z,9.07
2017-07-27T11:19:52.417Z,7.85
2017-07-27T11:22:21.487Z,12.52
2017-07-27T11:24:58.678Z,7.53
2017-07-27T11:27:27.683Z,7.87
2017-07-27T11:29:56.635Z,7.40
2017-07-27T11:32:25.617Z,7.45
2017-07-27T11:34:54.573Z,6.60
2017-07-27T11:37:23.679Z,7.40
2017-07-27T11:39:52.629Z,5.93
2017-07-27T11:43:23.909Z,6.62
2017-07-27T11:45:52.849Z,6.93
2017-07-27T11:48:22.085Z,6.03
2017-07-27T11:50:51.095Z,6.10
2017-07-27T11:53:20.052Z,5.87
2017-07-27T11:55:49.024Z,6.05
2017-07-27T11:58:17.972Z,6.03
2017-07-27T12:00:46.958Z,6.18
2017-07-27T12:03:15.900Z,6.72
2017-07-27T12:05:44.902Z,7.07
2017-07-27T12:08:13.875Z,6.72
2017-07-27T12:10:42.859Z,6.70
2017-07-27T12:13:11.903Z,6.30
2017-07-27T12:15:40.888Z,6.93
2017-07-27T12:18:09.947Z,5.90
2017-07-27T12:20:38.944Z,6.85
2017-07-27T12:23:07.968Z,6.62
2017-07-27T12:25:36.928Z,7.57
2017-07-27T12:28:12.530Z,6.65
2017-07-27T12:30:41.522Z,7.22
2017-07-27T12:33:11.226Z,6.40
2017-07-27T12:35:40.566Z,6.65
2017-07-27T12:38:11.232Z,5.93
2017-07-27T12:43:15.421Z,5.80
2017-07-27T12:45:44.436Z,5.10
2017-07-27T12:48:13.390Z,6.60
2017-07-27T12:50:42.467Z,5.72
2017-07-27T12:53:11.460Z,5.25
2017-07-27T12:55:40.469Z,5.00
2017-07-27T12:58:39.901Z,4.97
2017-07-27T13:01:09.170Z,4.90
2017-07-27T13:03:38.206Z,5.72
2017-07-27T13:06:07.208Z,5.45
2017-07-27T13:08:36.188Z,4.50
2017-07-27T13:11:05.190Z,5.05
2017-07-27T13:13:34.214Z,4.85
2017-07-27T13:16:03.181Z,5.22
2017-07-27T13:18:32.185Z,4.53
2017-07-27T13:21:01.534Z,4.93
2017-07-27T13:23:30.579Z,4.95
2017-07-27T13:26:00.029Z,4.57
2017-07-27T13:28:29.445Z,5.00
2017-07-27T13:30:58.437Z,4.68
2017-07-27T13:33:27.403Z,5.95
2017-07-27T13:35:56.382Z,5.93
2017-07-27T13:38:25.415Z,6.22
2017-07-27T13:40:54.512Z,6.43
2017-07-27T13:43:23.631Z,5.60
2017-07-27T13:45:52.675Z,7.85
2017-07-27T13:48:21.670Z,5.37
2017-07-27T13:50:50.656Z,5.57
2017-07-27T13:53:19.628Z,4.70
2017-07-27T13:55:48.673Z,5.20
2017-07-27T13:58:17.707Z,5.72
2017-07-27T14:00:46.663Z,5.53
2017-07-27T14:03:15.686Z,5.10
2017-07-27T14:05:44.697Z,4.68
2017-07-27T14:08:14.068Z,4.30
2017-07-27T14:10:46.044Z,3.87
2017-07-27T14:13:15.027Z,3.58
2017-07-27T14:15:44.021Z,3.42
2017-07-27T14:18:13.055Z,3.65
2017-07-27T14:20:42.051Z,4.50
2017-07-27T14:23:11.168Z,3.05
2017-07-27T14:25:40.267Z,3.80
2017-07-27T14:28:09.249Z,3.62
2017-07-27T14:30:38.252Z,3.05
2017-07-27T14:33:07.237Z,3.10
2017-07-27T14:35:36.263Z,2.92
2017-07-27T14:38:05.166Z,3.25
2017-07-27T14:40:34.102Z,3.10
2017-07-27T14:43:03.058Z,4.43
2017-07-27T14:45:32.086Z,3.60
2017-07-27T14:48:01.146Z,3.80
2017-07-27T14:50:30.119Z,3.90
2017-07-27T14:52:59.083Z,4.30
2017-07-27T14:55:28.272Z,3.80
2017-07-27T14:57:57.174Z,4.07
2017-07-27T15:00:26.136Z,3.90
2017-07-27T15:02:55.085Z,4.05
2017-07-27T15:05:24.092Z,3.85
2017-07-27T15:07:53.116Z,6.78
2017-07-27T15:10:22.160Z,4.50
2017-07-27T15:12:51.194Z,4.00
2017-07-27T15:15:20.143Z,3.72
2017-07-27T15:17:49.050Z,3.92
2017-07-27T15:20:19.428Z,3.83
2017-07-27T15:22:48.396Z,4.43
2017-07-27T15:25:17.776Z,4.70
2017-07-27T15:27:46.743Z,6.00
2017-07-27T15:30:15.748Z,4.65
2017-07-27T15:32:44.799Z,4.22
2017-07-27T15:35:13.796Z,4.60
2017-07-27T15:37:42.792Z,4.57
2017-07-27T15:40:12.743Z,4.30
2017-07-27T15:42:41.700Z,5.43
2017-07-27T15:45:10.640Z,5.32
2017-07-27T15:47:39.570Z,5.00
2017-07-27T15:50:08.637Z,4.82
2017-07-27T15:52:37.600Z,4.65
2017-07-27T15:55:06.796Z,4.18
2017-07-27T15:57:35.701Z,4.60
2017-07-27T16:00:04.702Z,4.37
2017-07-27T16:02:33.690Z,4.32
2017-07-27T16:05:02.696Z,4.60
2017-07-27T16:07:31.679Z,4.82
2017-07-27T16:10:00.797Z,4.35
2017-07-27T16:12:29.685Z,4.57
2017-07-27T16:14:58.664Z,4.80
2017-07-27T16:17:27.602Z,5.15
2017-07-27T16:19:56.597Z,5.15
2017-07-27T16:22:25.689Z,4.03
2017-07-27T16:24:54.663Z,5.72
2017-07-27T16:27:23.666Z,4.40
2017-07-27T16:29:52.673Z,5.15
2017-07-27T16:32:21.668Z,4.72
2017-07-27T16:34:50.655Z,4.50
2017-07-27T16:37:19.642Z,3.97
2017-07-27T16:39:48.736Z,4.15
2017-07-27T16:42:17.699Z,4.93
2017-07-27T16:44:46.675Z,4.18
2017-07-27T16:47:15.697Z,4.20
2017-07-27T16:49:44.641Z,4.35
2017-07-27T16:54:32.098Z,5.40
2017-07-27T16:57:01.353Z,4.55
2017-07-27T16:59:30.445Z,4.78
2017-07-27T17:02:00.817Z,4.28
2017-07-27T17:04:30.148Z,4.43
2017-07-27T17:06:59.567Z,4.40
2017-07-27T17:09:28.551Z,3.85
2017-07-27T17:11:57.531Z,4.70
2017-07-27T17:14:27.047Z,5.00
2017-07-27T17:16:56.189Z,5.30
2017-07-27T17:19:25.193Z,4.97
2017-07-27T17:21:54.544Z,4.70
2017-07-27T17:24:23.571Z,5.10
2017-07-27T17:26:52.873Z,5.50
2017-07-27T17:29:22.054Z,6.50
2017-07-27T17:31:51.095Z,4.60
2017-07-27T17:34:20.061Z,5.10
2017-07-27T17:36:49.055Z,5.85
2017-07-27T17:39:18.148Z,5.00
2017-07-27T17:41:47.232Z,4.75
2017-07-27T17:44:16.257Z,4.75
2017-07-27T17:46:45.414Z,4.80
2017-07-27T17:49:14.387Z,5.22
2017-07-27T17:51:43.371Z,5.80
2017-07-27T17:54:14.088Z,5.10
2017-07-27T17:56:43.352Z,5.60
2017-07-27T17:59:12.560Z,6.25
2017-07-27T18:01:41.641Z,5.22
2017-07-27T18:04:10.666Z,5.65
2017-07-27T18:06:40.089Z,5.45
2017-07-27T18:09:09.048Z,5.15
2017-07-27T18:11:38.276Z,5.70
2017-07-27T18:14:07.269Z,5.50
2017-07-27T18:16:36.224Z,5.47
2017-07-27T18:19:05.938Z,5.95
2017-07-27T18:21:35.068Z,5.57
2017-07-27T18:24:04.218Z,5.72
2017-07-27T18:26:33.215Z,5.30
2017-07-27T18:29:02.196Z,8.60
2017-07-27T18:31:31.144Z,5.97
2017-07-27T18:34:00.196Z,5.50
2017-07-27T18:36:29.179Z,5.90
2017-07-27T18:38:58.120Z,5.72
2017-07-27T18:41:27.064Z,5.90
2017-07-27T18:43:56.151Z,6.12
2017-07-27T18:46:25.139Z,5.43
2017-07-27T18:48:54.107Z,6.15
2017-07-27T18:51:23.159Z,5.75
2017-07-27T18:53:52.122Z,7.10
2017-07-27T18:56:21.071Z,6.25
2017-07-27T18:58:49.999Z,6.18
2017-07-27T19:01:19.004Z,6.45
2017-07-27T19:03:47.999Z,5.85
2017-07-27T19:06:47.391Z,6.28
2017-07-27T19:09:16.482Z,6.00
2017-07-27T19:11:45.451Z,5.82
2017-07-27T19:14:14.444Z,5.43
2017-07-27T19:16:43.400Z,5.37
2017-07-27T19:19:12.359Z,5.80
2017-07-27T19:21:41.455Z,5.90
2017-07-27T19:24:10.670Z,6.15
2017-07-27T19:26:39.620Z,5.97
2017-07-27T19:29:08.590Z,6.47
2017-07-27T19:31:37.630Z,6.72
2017-07-27T19:34:06.631Z,7.15
2017-07-27T19:36:35.599Z,6.80
2017-07-27T19:39:04.717Z,6.07
2017-07-27T19:41:33.789Z,6.15
2017-07-27T19:44:02.944Z,6.57
2017-07-27T19:46:32.091Z,6.40
2017-07-27T19:49:01.003Z,7.50
2017-07-27T19:51:29.984Z,5.62
2017-07-27T19:53:58.979Z,6.37
2017-07-27T19:56:27.930Z,6.40
2017-07-27T19:58:56.906Z,6.60
2017-07-27T20:01:26.023Z,5.80
2017-07-27T20:03:54.982Z,7.40
2017-07-27T20:06:23.973Z,8.07
2017-07-27T20:08:53.008Z,7.07
2017-07-27T20:11:21.939Z,7.30
2017-07-27T20:13:50.865Z,8.00
2017-07-27T20:16:19.811Z,7.43
2017-07-27T20:18:48.824Z,7.93
2017-07-27T20:21:17.828Z,8.90
2017-07-27T20:23:46.819Z,7.07
2017-07-27T20:26:15.778Z,7.95
2017-07-27T20:28:44.722Z,7.80
2017-07-27T20:31:13.639Z,8.15
2017-07-27T20:33:42.555Z,8.20
2017-07-27T20:36:11.547Z,7.22
2017-07-27T20:38:40.528Z,8.80
2017-07-27T20:41:09.471Z,7.57
2017-07-27T20:43:38.440Z,8.40
2017-07-27T20:46:07.390Z,12.55
2017-07-27T20:48:36.313Z,9.38
2017-07-27T20:51:05.255Z,10.00
2017-07-27T20:53:34.151Z,9.57
2017-07-27T20:56:03.119Z,9.38
2017-07-27T20:58:32.130Z,9.40
2017-07-27T21:01:01.046Z,11.55
2017-07-27T21:03:30.024Z,9.73
2017-07-27T21:05:58.955Z,12.80
2017-07-27T21:08:27.905Z,10.10
2017-07-27T21:10:56.831Z,10.93
2017-07-27T21:13:25.810Z,9.38
2017-07-27T21:15:56.854Z,8.48
2017-07-27T21:18:25.844Z,11.20
2017-07-27T21:20:54.972Z,9.98
2017-07-27T21:23:23.976Z,8.82
2017-07-27T21:25:52.907Z,8.88
2017-07-27T21:28:21.887Z,8.05
2017-07-27T21:30:50.871Z,12.63
2017-07-27T21:33:19.804Z,7.95
2017-07-27T21:35:48.735Z,13.07
2017-07-27T21:38:17.667Z,8.40
2017-07-27T21:40:46.590Z,10.43
2017-07-27T21:43:15.670Z,6.87
2017-07-27T21:45:44.584Z,8.18
2017-07-27T21:48:13.557Z,8.30
2017-07-27T21:50:42.478Z,6.12
2017-07-27T21:53:11.359Z,7.97
2017-07-27T21:55:40.612Z,6.53
2017-07-27T21:58:09.546Z,4.95
2017-07-27T22:00:38.466Z,7.40
2017-07-27T22:03:07.423Z,5.90
2017-07-27T22:05:36.354Z,4.57
2017-07-27T22:08:05.288Z,4.82
2017-07-27T22:10:37.102Z,4.65
2017-07-27T22:13:06.019Z,5.10
2017-07-27T22:15:34.951Z,4.60
2017-07-27T22:18:03.883Z,5.57
2017-07-27T22:20:32.783Z,4.95
2017-07-27T22:23:01.735Z,4.82
2017-07-27T22:25:30.619Z,5.62
2017-07-27T22:27:59.505Z,4.68
2017-07-27T22:30:28.390Z,6.10
2017-07-27T22:34:00.350Z,7.07
2017-07-27T22:36:29.296Z,5.15
2017-07-27T22:38:58.291Z,4.90
2017-07-27T22:41:27.195Z,6.18
2017-07-27T22:46:21.502Z,5.55
2017-07-27T22:48:50.458Z,5.87
2017-07-27T22:51:19.368Z,7.18
2017-07-27T22:53:48.252Z,6.78
2017-07-27T22:56:17.126Z,6.05
2017-07-27T22:58:46.069Z,5.10
2017-07-27T23:01:14.935Z,6.53
2017-07-27T23:03:43.812Z,7.00
2017-07-27T23:06:12.856Z,5.68
2017-07-27T23:08:41.768Z,5.97
2017-07-27T23:11:10.699Z,7.65
2017-07-27T23:13:39.651Z,5.95
2017-07-27T23:16:08.524Z,6.28
2017-07-27T23:18:37.406Z,6.75
2017-07-27T23:21:06.292Z,5.12
2017-07-27T23:23:35.122Z,6.07
2017-07-27T23:26:03.984Z,5.50
2017-07-27T23:28:32.884Z,5.55
2017-07-27T23:31:01.775Z,5.50
2017-07-27T23:33:30.656Z,6.25
2017-07-27T23:35:59.599Z,6.78
2017-07-27T23:38:28.467Z,6.07
2017-07-27T23:40:57.423Z,5.95
2017-07-27T23:43:26.387Z,6.72
2017-07-27T23:45:55.322Z,5.78
2017-07-27T23:48:24.258Z,6.70
2017-07-27T23:50:53.161Z,8.55
2017-07-27T23:53:22.085Z,6.62
2017-07-27T23:55:50.999Z,7.62
2017-07-27T23:58:19.961Z,9.65
